Weather reports worldwide

Advertisment
Grenoble le Versoud, France (7487): temperature & dewpoint: 10.10.2019 05:00:00 - 16.10.2019 05:00:00 (CEST)Grenoble le Versoud, France (7487): wind speed & gusts: 10.10.2019 05:00:00 - 16.10.2019 05:00:00 (CEST)Grenoble le Versoud, France (7487): wind direction: 10.10.2019 05:00:00 - 16.10.2019 05:00:00 (CEST)Grenoble le Versoud, France (7487): reduced air pressure: 10.10.2019 05:00:00 - 16.10.2019 05:00:00 (CEST)Grenoble le Versoud, France (7487): precipitation: 10.10.2019 05:00:00 - 16.10.2019 05:00:00 (CEST)
Date & Time tt [°C] td [°C] ff [km/h] ff [kn] fx [km/h] fx [kn] dd ppp [hPa] rr [mm]
16.10.2019 05:00:00 7,7 6,9 2 1 8 4 SE 1019,9 0,0
16.10.2019 04:00:00 8,1 7,8 4 2 5 3 NNW 1019,8 0,0
16.10.2019 03:00:00 8,9 8,6 2 1 5 3 E 1019,4 0,0
16.10.2019 02:00:00 9,0 8,7 0 0 5 3 N 1019,6 -
16.10.2019 01:00:00 9,4 8,8 4 2 8 4 ENE 1019,4 0,0
16.10.2019 00:00:00 10,1 9,8 4 2 8 4 WNW 1019,4 0,0
15.10.2019 23:00:00 10,3 9,7 2 1 5 3 SW 1019,0 0,0
15.10.2019 22:00:00 11,4 10,6 4 2 8 4 E 1018,5 0,0
15.10.2019 21:00:00 11,5 10,7 4 2 8 4 ENE 1018,2 0,8
15.10.2019 20:00:00 11,8 10,5 5 3 16 9 ENE 1017,5 -
15.10.2019 19:00:00 12,8 11,0 5 3 18 10 ESE 1016,0 2,0
15.10.2019 18:00:00 14,6 13,1 5 3 9 5 SW 1013,6 0,0
15.10.2019 17:00:00 14,9 11,9 2 1 8 4 NE 1012,9 0,0
15.10.2019 16:00:00 15,0 11,6 5 3 11 6 N 1012,5 0,2
15.10.2019 15:00:00 13,4 10,6 8 4 22 12 WNW 1012,0 3,0
15.10.2019 14:00:00 14,1 11,8 8 4 29 16 S 1010,8 -
15.10.2019 13:00:00 15,1 13,8 15 8 22 12 SSW 1010,3 3,0
15.10.2019 12:00:00 15,1 14,3 2 1 11 6 S 1010,4 2,0
15.10.2019 11:00:00 15,1 14,3 4 2 9 5 NNE 1010,1 3,0
15.10.2019 10:00:00 15,2 14,1 5 3 15 8 SSE 1009,5 4,0
15.10.2019 09:00:00 15,7 14,9 5 3 15 8 SSE 1009,9 6,0
15.10.2019 08:00:00 15,5 14,5 5 3 13 7 SSE 1007,9 -
15.10.2019 07:00:00 16,0 14,7 5 3 11 6 E 1007,6 1,0
15.10.2019 06:00:00 15,9 13,2 5 3 11 6 SSW 1007,7 0,2
15.10.2019 05:00:00 16,1 12,6 5 3 13 7 ENE 1007,3 0,0
15.10.2019 04:00:00 16,7 12,0 8 4 15 8 NNE 1008,0 0,0
15.10.2019 03:00:00 16,9 11,8 5 3 13 7 E 1008,1 0,0
15.10.2019 02:00:00 16,9 11,6 5 3 15 8 ENE 1008,7 -
15.10.2019 01:00:00 16,4 11,5 9 5 16 9 NE 1009,4 0,0
15.10.2019 00:00:00 17,6 12,1 11 6 21 11 NE 1009,6 0,0
14.10.2019 23:00:00 21,1 11,7 4 2 31 17 ENE 1010,2 0,0
14.10.2019 22:00:00 21,5 11,8 13 7 26 14 S 1010,3 0,0
14.10.2019 21:00:00 22,5 11,9 13 7 34 18 SSW 1010,4 0,0
14.10.2019 20:00:00 19,9 12,2 5 3 22 12 SSW 1010,9 -
14.10.2019 19:00:00 21,9 12,4 8 4 21 11 S 1010,6 0,0
14.10.2019 18:00:00 24,4 11,7 18 10 31 17 SW 1010,0 0,0
14.10.2019 17:00:00 25,6 15,0 5 3 13 7 NNW 1010,1 0,0
14.10.2019 16:00:00 25,9 11,3 5 3 13 7 S 1010,8 0,0
14.10.2019 15:00:00 24,1 12,7 4 2 18 10 E 1011,9 0,0
14.10.2019 14:00:00 22,4 13,5 5 3 15 8 ENE 1013,7 -
14.10.2019 13:00:00 20,6 13,8 4 2 8 4 NNE 1015,3 0,0
14.10.2019 12:00:00 18,4 13,3 2 1 9 5 NE 1016,2 0,0
14.10.2019 11:00:00 15,0 13,4 0 0 8 4 N 1017,4 0,0
14.10.2019 10:00:00 12,2 12,0 4 2 8 4 NE 1017,9 0,0
14.10.2019 09:00:00 9,6 9,5 2 1 5 3 NNW 1018,2 0,0
14.10.2019 08:00:00 8,8 8,5 2 1 5 3 NNE 1018,1 -
14.10.2019 07:00:00 8,4 8,0 0 0 4 2 N 1017,8 0,0
14.10.2019 06:00:00 8,7 8,1 0 0 5 3 N 1018,1 0,0
14.10.2019 05:00:00 9,4 8,9 0 0 8 4 N 1017,9 0,0
14.10.2019 04:00:00 10,2 9,6 0 0 5 3 N 1018,0 0,0
14.10.2019 03:00:00 10,9 10,3 0 0 8 4 N 1018,5 0,0
14.10.2019 02:00:00 11,5 11,0 0 0 5 3 N 1018,8 -
14.10.2019 01:00:00 11,8 10,9 0 0 5 3 N 1018,7 0,0
14.10.2019 00:00:00 12,3 11,5 0 0 4 2 N 1018,7 0,0
13.10.2019 23:00:00 13,5 12,4 4 2 5 3 NE 1018,1 0,0
13.10.2019 22:00:00 14,5 12,2 0 0 5 3 N 1017,3 0,0
13.10.2019 21:00:00 15,5 12,4 2 1 8 4 ENE 1016,5 0,0
13.10.2019 20:00:00 17,2 12,9 4 2 9 5 N 1016,0 -
13.10.2019 19:00:00 21,8 12,6 4 2 18 10 S 1014,8 0,0
13.10.2019 18:00:00 25,7 12,2 9 5 22 12 S 1014,2 0,0
13.10.2019 17:00:00 26,7 13,1 11 6 26 14 S 1014,0 0,0
13.10.2019 16:00:00 27,2 13,9 11 6 18 10 SSW 1014,2 0,0
13.10.2019 15:00:00 26,1 14,2 9 5 15 8 SSE 1015,0 0,0
13.10.2019 14:00:00 24,7 15,3 0 0 13 7 N 1016,1 -
13.10.2019 13:00:00 22,6 14,2 0 0 11 6 N 1017,3 0,0
13.10.2019 12:00:00 19,4 13,6 5 3 11 6 ESE 1018,4 0,0
13.10.2019 11:00:00 16,3 12,8 4 2 9 5 WSW 1018,7 0,0
13.10.2019 10:00:00 13,8 12,4 0 0 9 5 N 1018,7 0,0
13.10.2019 09:00:00 12,4 11,6 4 2 9 5 SSE 1018,5 0,0
13.10.2019 08:00:00 12,4 11,8 5 3 9 5 ENE 1018,1 -
13.10.2019 07:00:00 12,0 11,7 5 3 8 4 NE 1018,4 0,0
13.10.2019 06:00:00 12,0 11,5 2 1 8 4 NE 1018,8 0,0
13.10.2019 05:00:00 11,9 11,1 5 3 11 6 NE 1018,8 0,0
13.10.2019 04:00:00 11,0 10,4 4 2 5 3 NE 1019,2 0,0
13.10.2019 03:00:00 11,7 11,4 5 3 11 6 E 1019,7 0,0
13.10.2019 02:00:00 11,5 10,9 2 1 11 6 SW 1019,8 -
13.10.2019 01:00:00 12,4 11,6 0 0 8 4 N 1019,7 0,0
13.10.2019 00:00:00 13,0 11,9 0 0 5 3 N 1019,7 0,0
12.10.2019 23:00:00 13,9 12,6 0 0 8 4 N 1019,5 0,0
12.10.2019 22:00:00 14,2 12,6 0 0 5 3 N 1019,2 0,0
12.10.2019 21:00:00 15,9 13,7 0 0 5 3 N 1018,8 0,0
12.10.2019 20:00:00 17,1 13,8 0 0 11 6 N 1018,7 -
12.10.2019 19:00:00 19,1 14,1 0 0 11 6 N 1018,2 0,0
12.10.2019 18:00:00 21,0 15,8 5 3 9 5 NNE 1018,0 0,0
12.10.2019 17:00:00 22,9 15,0 5 3 16 9 S 1017,7 0,0
12.10.2019 16:00:00 24,4 14,5 9 5 15 8 WSW 1017,3 0,0
12.10.2019 15:00:00 22,7 13,5 5 3 9 5 E 1017,3 0,0
12.10.2019 14:00:00 21,4 12,8 0 0 5 3 N 1018,1 -
12.10.2019 13:00:00 18,1 10,9 2 1 5 3 W 1019,6 0,0
12.10.2019 12:00:00 15,1 10,9 0 0 8 4 N 1019,9 0,0
12.10.2019 11:00:00 12,6 10,1 4 2 9 5 NE 1020,3 0,0
12.10.2019 10:00:00 10,1 9,0 5 3 9 5 ENE 1020,6 0,0
12.10.2019 09:00:00 7,2 6,9 0 0 8 4 N 1020,9 0,0
12.10.2019 08:00:00 5,9 5,3 4 2 8 4 NE 1021,1 -
12.10.2019 07:00:00 6,2 5,9 4 2 5 3 ENE 1021,0 0,0
12.10.2019 06:00:00 5,9 5,6 0 0 5 3 N 1021,2 0,0
12.10.2019 05:00:00 5,9 5,3 2 1 5 3 N 1021,4 0,0
12.10.2019 04:00:00 6,6 5,9 0 0 5 3 N 1021,6 0,0
12.10.2019 03:00:00 7,3 6,7 0 0 5 3 N 1021,6 0,0
12.10.2019 02:00:00 7,7 6,8 0 0 9 5 N 1021,5 -
12.10.2019 01:00:00 8,6 8,2 4 2 8 4 E 1021,3 0,0
12.10.2019 00:00:00 9,2 8,9 2 1 5 3 E 1021,5 0,0
11.10.2019 23:00:00 9,8 9,0 0 0 5 3 N 1021,2 0,0
11.10.2019 22:00:00 10,0 8,8 0 0 4 2 N 1020,9 0,0
11.10.2019 21:00:00 11,7 10,8 0 0 4 2 N 1020,3 0,0
11.10.2019 20:00:00 12,6 10,7 2 1 4 2 NNW 1019,8 -
11.10.2019 19:00:00 15,9 10,4 0 0 5 3 N 1018,8 0,0
11.10.2019 18:00:00 20,0 11,0 4 2 8 4 S 1018,3 0,0
11.10.2019 17:00:00 21,6 9,5 0 0 11 6 N 1018,2 0,0
11.10.2019 16:00:00 21,4 9,9 0 0 9 5 N 1018,7 0,0
11.10.2019 15:00:00 20,6 8,9 2 1 9 5 SE 1019,3 0,0
11.10.2019 14:00:00 18,8 9,3 5 3 13 7 E 1020,5 -
11.10.2019 13:00:00 17,1 7,2 4 2 11 6 E 1021,5 0,0
11.10.2019 12:00:00 15,2 8,0 2 1 9 5 NE 1022,7 0,0
11.10.2019 11:00:00 12,1 8,2 2 1 8 4 NE 1023,7 0,0
11.10.2019 10:00:00 9,5 8,9 0 0 4 2 N 1024,1 0,0
11.10.2019 09:00:00 4,9 4,6 0 0 4 2 N 1024,1 0,0
11.10.2019 08:00:00 4,5 4,2 4 2 5 3 N 1023,6 -
11.10.2019 07:00:00 5,2 4,9 4 2 8 4 ENE 1023,4 0,0
11.10.2019 06:00:00 4,9 4,5 4 2 5 3 NE 1023,5 0,0
11.10.2019 05:00:00 5,3 4,9 4 2 5 3 NNE 1024,2 0,0
11.10.2019 04:00:00 6,2 5,9 2 1 5 3 S 1024,3 0,0
11.10.2019 03:00:00 6,4 5,8 4 2 5 3 NNE 1024,7 0,0
11.10.2019 02:00:00 7,1 6,2 0 0 4 2 N 1024,5 -
11.10.2019 01:00:00 7,4 6,5 0 0 5 3 N 1024,1 0,0
11.10.2019 00:00:00 8,4 7,5 2 1 11 6 NE 1023,8 0,0
10.10.2019 23:00:00 8,4 6,7 2 1 8 4 WSW 1023,5 0,0
10.10.2019 22:00:00 8,9 7,0 2 1 4 2 NNW 1023,2 0,0
10.10.2019 21:00:00 10,7 7,4 0 0 5 3 N 1022,7 0,0
10.10.2019 20:00:00 12,3 7,6 4 2 11 6 S 1022,0 -
10.10.2019 19:00:00 15,7 9,1 5 3 21 11 E 1021,4 0,0
10.10.2019 18:00:00 18,4 8,1 15 8 29 16 NNE 1020,6 0,0
10.10.2019 17:00:00 19,4 6,5 18 10 31 17 NNE 1020,5 0,0
10.10.2019 16:00:00 19,6 7,3 16 9 28 15 NE 1020,5 0,0
10.10.2019 15:00:00 19,3 8,3 9 5 21 11 NE 1020,8 0,0
10.10.2019 14:00:00 18,1 10,7 5 3 11 6 NNE 1021,6 -
10.10.2019 13:00:00 16,3 10,8 5 3 11 6 WSW 1022,1 0,0
10.10.2019 12:00:00 14,3 11,6 4 2 9 5 NE 1022,5 0,0
10.10.2019 11:00:00 11,2 10,4 5 3 13 7 NE 1023,3 0,0
10.10.2019 10:00:00 9,6 9,5 4 2 8 4 SW 1023,0 0,0
10.10.2019 09:00:00 8,3 8,2 4 2 9 5 N 1022,8 0,0
10.10.2019 08:00:00 7,7 7,3 2 1 9 5 E 1022,2 -
10.10.2019 07:00:00 7,5 7,2 5 3 9 5 NE 1021,9 0,0
10.10.2019 06:00:00 8,0 7,7 0 0 8 4 N 1021,6 0,0
10.10.2019 05:00:00 7,8 7,5 0 0 9 5 N 1021,4 0,0

tt = temperature
td = dewpoint
ff = wind speed
fx = gusts
dd = wind direction
ppp = reduced air pressure
rr = precipitation

Next stations